Time;durP1;ratioP1;P1;durP2;ratioP2;P2;SDS_P1;SDS_P2;PMS_P1;PMS_P2;Temp;Humidity;BMP_temperature;BMP_pressure;BME280_temperature;BME280_humidity;BME280_pressure;Samples;Min_cycle;Max_cycle;Signal;HPM_P1;HPM_P2
2023/09/11 00:01:31;;;;;;;12.20;9.05;;;;;;;19.90;100.00;101499.00;5072040;28;20611;-79
2023/09/11 00:03:57;;;;;;;13.43;9.02;;;;;;;19.86;100.00;101490.41;5071189;28;20103;-79
2023/09/11 00:06:25;;;;;;;11.52;8.98;;;;;;;19.82;100.00;101490.97;5071032;28;20068;-77
2023/09/11 00:08:50;;;;;;;16.27;9.40;;;;;;;19.79;100.00;101486.75;5072410;28;20115;-78
2023/09/11 00:11:15;;;;;;;12.57;8.82;;;;;;;19.74;100.00;101481.91;5071328;28;20523;-78
2023/09/11 00:13:41;;;;;;;12.82;9.70;;;;;;;19.72;100.00;101483.09;5071823;28;20113;-77
2023/09/11 00:16:06;;;;;;;20.60;9.57;;;;;;;19.69;100.00;101478.06;5072684;28;20384;-77
2023/09/11 00:18:32;;;;;;;12.35;9.00;;;;;;;19.65;100.00;101482.19;5071841;28;20123;-77
2023/09/11 00:20:57;;;;;;;15.23;9.35;;;;;;;19.62;100.00;101487.94;5072154;28;20036;-77
2023/09/11 00:23:23;;;;;;;10.43;8.90;;;;;;;19.56;100.00;101484.09;5072057;28;20028;-78
2023/09/11 00:25:48;;;;;;;10.48;9.10;;;;;;;19.51;100.00;101481.97;5072155;28;20396;-77
2023/09/11 00:28:14;;;;;;;13.90;9.00;;;;;;;19.49;100.00;101483.97;5072443;28;20032;-78
2023/09/11 00:30:40;;;;;;;13.05;9.30;;;;;;;19.45;100.00;101480.00;5071973;28;20469;-77
2023/09/11 00:33:05;;;;;;;11.43;8.63;;;;;;;19.41;100.00;101481.38;5072511;28;20035;-78
2023/09/11 00:35:31;;;;;;;15.93;9.65;;;;;;;19.40;100.00;101476.16;5070784;28;20435;-77
2023/09/11 00:37:56;;;;;;;13.23;10.05;;;;;;;19.37;100.00;101480.06;5072661;28;20115;-77
2023/09/11 00:40:22;;;;;;;13.35;9.57;;;;;;;19.38;100.00;101474.47;5071931;28;20502;-78
2023/09/11 00:42:47;;;;;;;14.45;9.50;;;;;;;19.35;100.00;101472.13;5071831;28;20032;-77
2023/09/11 00:45:13;;;;;;;13.25;9.68;;;;;;;19.34;100.00;101473.16;5072346;28;20041;-78
2023/09/11 00:47:40;;;;;;;15.90;9.10;;;;;;;19.33;100.00;101468.78;5071653;28;20093;-77
2023/09/11 00:50:08;;;;;;;15.50;9.30;;;;;;;19.32;100.00;101464.41;5070877;28;20064;-78
2023/09/11 00:52:34;;;;;;;11.98;9.90;;;;;;;19.31;100.00;101457.31;5071885;28;20036;-77
2023/09/11 00:54:59;;;;;;;17.38;9.30;;;;;;;19.29;100.00;101463.94;5072565;28;20452;-77
2023/09/11 00:57:25;;;;;;;13.15;8.98;;;;;;;19.27;100.00;101458.72;5072241;28;20033;-78
2023/09/11 00:59:51;;;;;;;12.85;9.13;;;;;;;19.24;100.00;101455.53;5073809;28;20059;-78
2023/09/11 01:02:18;;;;;;;16.42;8.85;;;;;;;19.21;100.00;101448.66;5074790;28;20468;-80
2023/09/11 01:04:44;;;;;;;12.50;9.73;;;;;;;19.18;100.00;101455.25;5075607;28;20028;-78
2023/09/11 01:07:13;;;;;;;12.27;9.02;;;;;;;19.15;100.00;101449.38;5076004;28;20036;-78
2023/09/11 01:09:39;;;;;;;15.18;9.70;;;;;;;19.11;100.00;101448.91;5074229;28;20436;-78
2023/09/11 01:12:04;;;;;;;17.77;9.85;;;;;;;19.07;100.00;101446.75;5076124;28;20036;-77
2023/09/11 01:14:31;;;;;;;14.23;9.10;;;;;;;19.03;100.00;101441.72;5075107;28;20098;-77
2023/09/11 01:17:05;;;;;;;12.05;9.27;;;;;;;18.99;100.00;101432.31;5075671;28;20097;-78
2023/09/11 01:20:09;;;;;;;13.95;9.40;;;;;;;18.97;100.00;101439.75;5075726;28;20101;-78
2023/09/11 01:23:08;;;;;;;16.60;9.70;;;;;;;18.93;100.00;101435.72;5074491;28;20187;-77
2023/09/11 01:26:03;;;;;;;13.90;9.20;;;;;;;18.91;100.00;101432.34;5075358;28;20063;-77
2023/09/11 01:29:05;;;;;;;17.08;9.77;;;;;;;18.87;100.00;101436.44;5075768;28;20373;-78
2023/09/11 01:31:32;;;;;;;13.05;9.00;;;;;;;18.85;100.00;101427.66;5075076;28;20035;-78
2023/09/11 01:34:05;;;;;;;13.27;9.02;;;;;;;18.83;100.00;101433.22;5075479;28;20116;-78
2023/09/11 01:36:31;;;;;;;12.10;9.85;;;;;;;18.80;100.00;101425.50;5075439;28;20059;-78
2023/09/11 01:38:57;;;;;;;14.52;10.13;;;;;;;18.77;100.00;101416.94;5075427;28;20040;-78
2023/09/11 01:41:30;;;;;;;13.90;9.90;;;;;;;18.74;100.00;101420.00;5075263;28;20457;-78
2023/09/11 01:43:58;;;;;;;15.50;10.75;;;;;;;18.70;100.00;101414.09;5075144;28;20032;-78
2023/09/11 01:46:25;;;;;;;12.48;10.07;;;;;;;18.67;100.00;101407.25;5075306;28;20063;-78
2023/09/11 01:48:51;;;;;;;12.55;10.73;;;;;;;18.66;100.00;101402.00;5074868;28;20440;-78
2023/09/11 01:51:18;;;;;;;12.68;10.63;;;;;;;18.63;100.00;101403.22;5073689;28;20055;-78
2023/09/11 01:53:44;;;;;;;16.92;10.80;;;;;;;18.61;100.00;101405.25;5074721;28;20029;-78
2023/09/11 01:56:10;;;;;;;14.02;11.00;;;;;;;18.59;100.00;101393.81;5075055;28;20044;-78
2023/09/11 01:58:35;;;;;;;15.20;10.70;;;;;;;18.58;100.00;101397.50;5074748;28;20041;-78
2023/09/11 02:01:01;;;;;;;12.52;11.23;;;;;;;18.55;100.00;101397.88;5074914;28;20036;-78
2023/09/11 02:03:27;;;;;;;14.93;11.90;;;;;;;18.53;100.00;101396.41;5074967;28;20115;-78
2023/09/11 02:05:54;;;;;;;16.85;11.27;;;;;;;18.50;100.00;101386.81;5074508;28;20075;-78
2023/09/11 02:08:20;;;;;;;22.05;11.98;;;;;;;18.47;100.00;101392.56;5073674;28;20085;-78
2023/09/11 02:10:46;;;;;;;18.05;11.05;;;;;;;18.45;100.00;101384.66;5073527;28;20041;-78
2023/09/11 02:13:12;;;;;;;14.63;11.90;;;;;;;18.43;100.00;101388.53;5073684;28;20028;-77
2023/09/11 02:15:37;;;;;;;17.23;12.55;;;;;;;18.42;100.00;101384.16;5072926;28;20049;-77
2023/09/11 02:18:02;;;;;;;17.38;13.95;;;;;;;18.39;100.00;101384.50;5074819;28;20029;-77
2023/09/11 02:20:28;;;;;;;17.67;13.43;;;;;;;18.39;100.00;101389.88;5073276;28;20040;-78
2023/09/11 02:22:53;;;;;;;21.08;12.13;;;;;;;18.36;100.00;101391.06;5074310;28;20032;-77
2023/09/11 02:25:18;;;;;;;16.13;12.68;;;;;;;18.31;100.00;101394.31;5073433;28;20029;-77
2023/09/11 02:27:44;;;;;;;15.70;12.77;;;;;;;18.27;100.00;101392.13;5073785;28;20044;-77
2023/09/11 02:30:10;;;;;;;18.60;12.82;;;;;;;18.24;100.00;101393.34;5073137;28;20119;-77
2023/09/11 02:32:35;;;;;;;20.85;13.85;;;;;;;18.23;100.00;101390.84;5072875;28;20067;-77
2023/09/11 02:35:00;;;;;;;19.33;14.13;;;;;;;18.22;100.00;101387.28;5072723;28;20081;-77
2023/09/11 02:37:26;;;;;;;16.20;14.13;;;;;;;18.20;100.00;101386.63;5074420;28;20036;-77
2023/09/11 02:39:51;;;;;;;21.63;14.05;;;;;;;18.18;100.00;101385.13;5073973;28;20033;-77
2023/09/11 02:42:16;;;;;;;17.90;13.50;;;;;;;18.13;100.00;101373.03;5073103;28;20461;-77
2023/09/11 02:44:43;;;;;;;18.48;14.70;;;;;;;18.12;100.00;101379.44;5073586;28;20086;-77
2023/09/11 02:47:08;;;;;;;23.05;16.63;;;;;;;18.12;100.00;101378.59;5073209;28;20039;-76
2023/09/11 02:49:33;;;;;;;19.05;14.85;;;;;;;18.14;100.00;101376.56;5072930;28;20062;-76
2023/09/11 02:51:59;;;;;;;20.30;14.90;;;;;;;18.16;100.00;101374.53;5073831;28;20380;-77
2023/09/11 02:54:24;;;;;;;18.33;14.63;;;;;;;18.15;100.00;101375.53;5074037;28;20028;-77
2023/09/11 02:56:50;;;;;;;16.35;13.45;;;;;;;18.12;100.00;101375.88;5073440;28;20455;-77
2023/09/11 02:59:15;;;;;;;17.77;14.85;;;;;;;18.11;100.00;101377.75;5073737;28;20029;-77
2023/09/11 03:01:40;;;;;;;18.73;13.55;;;;;;;18.11;100.00;101371.53;5073948;28;20036;-78
2023/09/11 03:04:06;;;;;;;19.73;14.38;;;;;;;18.10;100.00;101372.53;5073322;28;20056;-78
2023/09/11 03:06:31;;;;;;;18.42;14.65;;;;;;;18.08;100.00;101363.81;5073699;28;20381;-77
2023/09/11 03:08:56;;;;;;;18.75;13.93;;;;;;;18.05;100.00;101353.38;5072037;28;20047;-77
2023/09/11 03:11:22;;;;;;;18.13;13.75;;;;;;;18.02;100.00;101353.72;5073629;28;20036;-77
2023/09/11 03:13:49;;;;;;;17.60;13.70;;;;;;;18.00;100.00;101355.75;5071746;28;20549;-76
2023/09/11 03:16:15;;;;;;;20.95;13.23;;;;;;;17.98;100.00;101351.38;5073572;28;20119;-77
2023/09/11 03:18:41;;;;;;;19.27;14.15;;;;;;;17.98;100.00;101348.69;5073636;28;20465;-77
2023/09/11 03:21:07;;;;;;;19.10;14.70;;;;;;;17.98;100.00;101348.69;5072941;28;20056;-77
2023/09/11 03:23:33;;;;;;;20.17;15.07;;;;;;;17.98;100.00;101345.16;5073312;28;20029;-78
2023/09/11 03:25:59;;;;;;;21.13;14.48;;;;;;;17.95;100.00;101343.66;5073001;28;20106;-77
2023/09/11 03:28:26;;;;;;;22.17;14.43;;;;;;;17.93;100.00;101337.63;5073296;28;20079;-77
2023/09/11 03:30:52;;;;;;;17.80;14.48;;;;;;;17.94;100.00;101336.63;5072834;28;20443;-77
2023/09/11 03:33:17;;;;;;;20.17;16.35;;;;;;;17.97;100.00;101338.97;5073358;28;20059;-76
2023/09/11 03:35:45;;;;;;;20.35;15.82;;;;;;;18.01;100.00;101339.44;5071920;28;20119;-77
2023/09/11 03:38:10;;;;;;;24.65;16.63;;;;;;;18.03;100.00;101336.56;5072507;28;20029;-77
2023/09/11 03:40:36;;;;;;;19.85;14.48;;;;;;;18.07;100.00;101329.81;5072932;28;20059;-77
2023/09/11 03:43:01;;;;;;;23.85;16.88;;;;;;;18.11;100.00;101337.38;5072649;28;20032;-77
2023/09/11 03:45:27;;;;;;;20.23;14.18;;;;;;;18.18;100.00;101340.16;5072892;28;20032;-78
2023/09/11 03:47:52;;;;;;;17.83;12.30;;;;;;;18.24;100.00;101342.19;5071271;28;20469;-77
2023/09/11 03:50:18;;;;;;;22.00;15.95;;;;;;;18.26;100.00;101340.13;5071477;28;20033;-77
2023/09/11 03:52:43;;;;;;;18.77;15.50;;;;;;;18.29;100.00;101333.56;5071809;28;20040;-77
2023/09/11 03:55:08;;;;;;;20.40;15.50;;;;;;;18.28;100.00;101334.56;5072191;28;20033;-77
2023/09/11 03:57:34;;;;;;;18.92;15.05;;;;;;;18.28;100.00;101331.88;5072756;28;20040;-77
2023/09/11 03:59:59;;;;;;;17.42;12.50;;;;;;;18.27;100.00;101328.34;5072573;28;20029;-77
2023/09/11 04:02:25;;;;;;;18.48;13.68;;;;;;;18.27;100.00;101322.13;5072784;28;20123;-77
2023/09/11 04:04:50;;;;;;;23.13;14.35;;;;;;;18.27;100.00;101320.28;5072795;28;20311;-76
2023/09/11 04:07:15;;;;;;;23.63;14.38;;;;;;;18.29;100.00;101325.50;5072128;28;20044;-77
2023/09/11 04:09:40;;;;;;;17.70;13.20;;;;;;;18.30;100.00;101327.16;5071483;28;20044;-78
2023/09/11 04:12:06;;;;;;;20.42;13.27;;;;;;;18.30;100.00;101328.00;5070780;28;20078;-77
2023/09/11 04:14:31;;;;;;;18.27;13.88;;;;;;;18.31;100.00;101324.28;5072348;28;20056;-78
2023/09/11 04:16:57;;;;;;;19.23;14.15;;;;;;;18.34;100.00;101320.38;5072288;28;20035;-77
2023/09/11 04:19:22;;;;;;;16.60;12.55;;;;;;;18.37;100.00;101319.19;5072716;28;20036;-78
2023/09/11 04:21:48;;;;;;;19.55;14.40;;;;;;;18.42;100.00;101319.50;5072554;28;20082;-77
2023/09/11 04:24:13;;;;;;;22.40;14.68;;;;;;;18.43;100.00;101322.00;5072276;28;20043;-77
2023/09/11 04:26:40;;;;;;;23.25;13.90;;;;;;;18.44;100.00;101325.56;5072711;28;20099;-77
2023/09/11 04:29:06;;;;;;;22.45;12.38;;;;;;;18.46;100.00;101320.81;5072106;28;20469;-77
2023/09/11 04:31:31;;;;;;;16.08;11.95;;;;;;;18.47;100.00;101322.50;5072563;28;20032;-77
2023/09/11 04:33:56;;;;;;;17.13;12.38;;;;;;;18.45;100.00;101328.06;5071568;28;20032;-77
2023/09/11 04:36:22;;;;;;;22.83;13.23;;;;;;;18.44;100.00;101321.00;5072374;28;20133;-78
2023/09/11 04:38:47;;;;;;;18.95;12.77;;;;;;;18.44;100.00;101322.88;5072271;28;20059;-77
2023/09/11 04:41:14;;;;;;;16.33;12.25;;;;;;;18.42;100.00;101317.66;5071586;28;20033;-78
2023/09/11 04:43:39;;;;;;;22.55;13.30;;;;;;;18.42;100.00;101328.44;5072369;28;20086;-78
2023/09/11 04:46:04;;;;;;;21.55;12.68;;;;;;;18.41;100.00;101325.91;5070667;28;20037;-78
2023/09/11 04:48:30;;;;;;;19.25;12.65;;;;;;;18.37;100.00;101317.34;5072514;28;20070;-78
2023/09/11 04:50:55;;;;;;;16.02;13.18;;;;;;;18.37;100.00;101322.72;5072428;28;20033;-78
2023/09/11 04:53:20;;;;;;;17.83;12.40;;;;;;;18.36;100.00;101310.25;5072016;28;20036;-78
2023/09/11 04:55:47;;;;;;;17.67;13.13;;;;;;;18.37;100.00;101313.81;5072353;28;20033;-78
2023/09/11 04:58:12;;;;;;;22.95;12.43;;;;;;;18.38;100.00;101321.72;5070672;28;20479;-78
2023/09/11 05:00:37;;;;;;;20.80;13.55;;;;;;;18.39;100.00;101320.72;5071080;28;20107;-78
2023/09/11 05:03:03;;;;;;;21.25;13.38;;;;;;;18.39;100.00;101326.09;5071930;28;20036;-78
2023/09/11 05:05:28;;;;;;;23.75;14.05;;;;;;;18.40;100.00;101322.38;5070902;28;20041;-78
2023/09/11 05:07:54;;;;;;;22.45;13.32;;;;;;;18.43;100.00;101327.38;5072200;28;20434;-78
2023/09/11 05:10:20;;;;;;;21.30;14.18;;;;;;;18.46;100.00;101337.81;5071851;28;20039;-78
2023/09/11 05:12:46;;;;;;;22.17;14.20;;;;;;;18.51;100.00;101329.19;5072052;28;20025;-78
2023/09/11 05:15:12;;;;;;;21.08;13.88;;;;;;;18.54;100.00;101323.47;5070277;28;20044;-77
2023/09/11 05:17:38;;;;;;;26.20;14.23;;;;;;;18.55;100.00;101325.13;5072049;28;20384;-77
2023/09/11 05:20:06;;;;;;;27.52;14.55;;;;;;;18.59;100.00;101328.31;5071597;28;20031;-77
2023/09/11 05:22:32;;;;;;;26.77;13.45;;;;;;;18.63;100.00;101333.16;5071978;28;20067;-77
2023/09/11 05:24:58;;;;;;;16.95;11.98;;;;;;;18.64;100.00;101332.13;5071876;28;20036;-77
2023/09/11 05:27:23;;;;;;;22.17;13.20;;;;;;;18.64;100.00;101331.28;5071551;28;20024;-77
2023/09/11 05:29:49;;;;;;;21.08;14.30;;;;;;;18.65;100.00;101338.38;5070651;28;20033;-76
2023/09/11 05:32:14;;;;;;;20.90;14.77;;;;;;;18.64;100.00;101339.38;5071190;28;20047;-77
2023/09/11 05:34:39;;;;;;;23.02;13.30;;;;;;;18.64;100.00;101336.69;5071867;28;20037;-77
2023/09/11 05:37:05;;;;;;;21.60;13.52;;;;;;;18.61;100.00;101343.25;5070231;28;20071;-77
2023/09/11 05:39:31;;;;;;;30.30;15.60;;;;;;;18.63;100.00;101352.03;5071616;28;20058;-77
2023/09/11 05:41:57;;;;;;;28.67;15.45;;;;;;;18.68;100.00;101356.88;5071820;28;20459;-79
2023/09/11 05:44:22;;;;;;;30.65;16.00;;;;;;;18.76;100.00;101358.66;5070463;28;20064;-77
2023/09/11 05:46:49;;;;;;;24.58;16.05;;;;;;;18.84;100.00;101362.13;5073514;28;20465;-78
2023/09/11 05:49:14;;;;;;;23.13;15.02;;;;;;;18.94;100.00;101361.06;5074550;28;20083;-76
2023/09/11 05:51:40;;;;;;;28.85;15.32;;;;;;;19.03;100.00;101358.13;5075231;28;20071;-79
2023/09/11 05:54:05;;;;;;;23.70;16.05;;;;;;;19.11;100.00;101370.69;5074701;28;20040;-78
2023/09/11 05:56:31;;;;;;;29.92;15.68;;;;;;;19.21;100.00;101381.22;5057362;28;20487;-79
2023/09/11 05:58:56;;;;;;;31.30;16.95;;;;;;;19.29;100.00;101380.31;5074865;28;20078;-79
2023/09/11 06:01:22;;;;;;;28.25;17.17;;;;;;;19.35;100.00;101372.31;5074656;28;20090;-79
2023/09/11 06:03:47;;;;;;;30.38;17.33;;;;;;;19.46;100.00;101372.88;5075078;28;20384;-79
2023/09/11 06:06:13;;;;;;;30.88;18.35;;;;;;;19.53;100.00;101379.22;5074511;28;20028;-79
2023/09/11 06:08:38;;;;;;;40.17;18.98;;;;;;;19.58;100.00;101381.38;5074899;28;20025;-78
2023/09/11 06:11:03;;;;;;;27.30;19.08;;;;;;;19.60;100.00;101387.41;5073404;28;20370;-76
2023/09/11 06:13:31;;;;;;;32.22;18.35;;;;;;;19.60;100.00;101382.88;5072963;28;20036;-77
2023/09/11 06:15:56;;;;;;;32.78;20.52;;;;;;;19.60;100.00;101384.69;5074893;28;20033;-77
2023/09/11 06:18:22;;;;;;;35.55;20.83;;;;;;;19.58;100.00;101386.75;5074442;28;20032;-77
2023/09/11 06:20:47;;;;;;;36.35;23.13;;;;;;;19.52;100.00;101383.75;5074848;28;20032;-77
2023/09/11 06:23:12;;;;;;;37.22;21.85;;;;;;;19.48;100.00;101381.63;5074320;28;20461;-77
2023/09/11 06:25:38;;;;;;;38.28;22.70;;;;;;;19.42;100.00;101376.97;5074617;28;20582;-79
2023/09/11 06:28:04;;;;;;;33.22;23.27;;;;;;;19.38;100.00;101377.34;5074741;28;20423;-77
2023/09/11 06:30:31;;;;;;;39.88;23.90;;;;;;;19.34;100.00;101372.50;5072798;28;20043;-77
2023/09/11 06:32:56;;;;;;;34.40;22.92;;;;;;;19.31;100.00;101375.56;5074372;28;20035;-77
2023/09/11 06:35:22;;;;;;;36.47;24.88;;;;;;;19.29;100.00;101372.22;5072784;28;20033;-77
2023/09/11 06:37:47;;;;;;;40.47;24.95;;;;;;;19.29;100.00;101378.44;5074496;28;20052;-77
2023/09/11 06:40:14;;;;;;;37.55;24.48;;;;;;;19.31;100.00;101371.00;5072533;28;20095;-77
2023/09/11 06:42:39;;;;;;;38.45;23.85;;;;;;;19.33;100.00;101370.81;5074249;28;20028;-77
2023/09/11 06:45:05;;;;;;;40.33;25.65;;;;;;;19.36;100.00;101374.00;5074409;28;20086;-77
2023/09/11 06:47:30;;;;;;;39.42;24.08;;;;;;;19.44;100.00;101375.78;5073861;28;20032;-78
2023/09/11 06:49:55;;;;;;;38.00;22.77;;;;;;;19.51;100.00;101389.34;5074148;28;20039;-77
2023/09/11 06:52:21;;;;;;;38.33;24.15;;;;;;;19.64;100.00;101394.94;5073853;28;20036;-77
2023/09/11 06:54:46;;;;;;;34.22;23.67;;;;;;;19.74;100.00;101390.09;5072864;28;20090;-77
2023/09/11 06:57:12;;;;;;;35.45;23.23;;;;;;;19.85;100.00;101391.53;5073442;28;20119;-77
2023/09/11 06:59:37;;;;;;;35.63;22.73;;;;;;;19.93;100.00;101385.22;5073887;28;20075;-77
2023/09/11 07:02:03;;;;;;;34.63;22.02;;;;;;;20.01;100.00;101389.66;5073774;28;20523;-77
2023/09/11 07:04:30;;;;;;;36.15;19.63;;;;;;;20.11;100.00;101387.50;5072298;28;20402;-77
2023/09/11 07:06:56;;;;;;;29.10;17.83;;;;;;;20.23;100.00;101382.47;5073838;28;20036;-77
2023/09/11 07:09:23;;;;;;;25.65;17.15;;;;;;;20.35;100.00;101385.50;5073186;28;20105;-78
2023/09/11 07:11:50;;;;;;;24.40;16.17;;;;;;;20.49;100.00;101387.31;5072436;28;20040;-77
2023/09/11 07:14:20;;;;;;;23.17;14.60;;;;;;;20.64;100.00;101389.13;5073191;28;20178;-77
2023/09/11 07:16:45;;;;;;;26.67;14.68;;;;;;;20.74;100.00;101393.22;5073401;28;20028;-77
2023/09/11 07:19:10;;;;;;;19.70;12.75;;;;;;;20.84;100.00;101384.78;5073402;28;20031;-78
2023/09/11 07:21:36;;;;;;;19.38;11.25;;;;;;;20.96;100.00;101391.34;5073160;28;20039;-77
2023/09/11 07:24:01;;;;;;;19.95;10.48;;;;;;;21.06;100.00;101390.16;5073260;28;20024;-77
2023/09/11 07:26:26;;;;;;;13.45;9.52;;;;;;;21.14;100.00;101392.75;5073130;28;20064;-78
2023/09/11 07:29:02;;;;;;;14.30;9.65;;;;;;;21.21;100.00;101390.09;5073124;28;20032;-76
2023/09/11 07:31:29;;;;;;;17.30;8.43;;;;;;;21.26;100.00;101387.66;5073023;28;20029;-77
2023/09/11 07:33:54;;;;;;;16.38;8.27;;;;;;;21.36;100.00;101393.53;5073317;28;20039;-76
2023/09/11 07:36:20;;;;;;;15.15;9.07;;;;;;;21.48;100.00;101391.09;5072845;28;20115;-76
2023/09/11 07:38:45;;;;;;;15.13;8.95;;;;;;;21.56;100.00;101387.47;5073321;28;20038;-77
2023/09/11 07:41:16;;;;;;;17.08;8.95;;;;;;;21.65;100.00;101384.38;5073185;28;20024;-77
2023/09/11 07:43:49;;;;;;;21.15;7.93;;;;;;;21.75;100.00;101396.72;5072581;28;20078;-77
2023/09/11 07:46:24;;;;;;;19.15;8.68;;;;;;;21.84;100.00;101390.94;5073099;28;20036;-76
2023/09/11 07:48:50;;;;;;;11.40;7.78;;;;;;;21.85;100.00;101397.19;5072988;28;20477;-76
2023/09/11 07:51:16;;;;;;;12.70;7.60;;;;;;;21.87;100.00;101400.56;5073018;28;20040;-77
2023/09/11 07:53:42;;;;;;;22.85;8.02;;;;;;;21.89;100.00;101392.22;5072546;28;20052;-76
2023/09/11 07:56:10;;;;;;;13.30;6.85;;;;;;;21.97;100.00;101402.88;5072938;28;20544;-77
2023/09/11 07:58:36;;;;;;;13.30;6.80;;;;;;;22.08;100.00;101405.03;5072434;28;20038;-76
2023/09/11 08:01:02;;;;;;;14.27;6.93;;;;;;;22.24;100.00;101405.69;5073042;28;20039;-76
2023/09/11 08:03:28;;;;;;;13.02;7.05;;;;;;;22.32;100.00;101403.69;5072796;28;20083;-77
2023/09/11 08:05:53;;;;;;;16.20;7.07;;;;;;;22.42;100.00;101402.47;5073033;28;20025;-77
2023/09/11 08:08:19;;;;;;;20.42;7.18;;;;;;;22.45;100.00;101415.59;5071028;28;20060;-76
2023/09/11 08:10:44;;;;;;;10.50;6.20;;;;;;;22.63;100.00;101418.59;5072198;28;20044;-76
2023/09/11 08:13:10;;;;;;;18.67;7.22;;;;;;;22.84;100.00;101420.28;5072761;28;20032;-75
2023/09/11 08:15:35;;;;;;;9.82;6.57;;;;;;;23.11;100.00;101425.78;5071849;28;20568;-75
2023/09/11 08:18:01;;;;;;;17.85;6.85;;;;;;;23.30;100.00;101429.50;5071480;28;20086;-75
2023/09/11 08:20:26;;;;;;;11.40;6.60;;;;;;;23.48;100.00;101428.88;5072119;28;20039;-77
2023/09/11 08:22:52;;;;;;;16.20;6.38;;;;;;;23.62;100.00;101428.84;5071458;28;20357;-75
2023/09/11 08:25:17;;;;;;;11.20;6.40;;;;;;;23.79;100.00;101431.97;5072719;28;20399;-75
2023/09/11 08:27:43;;;;;;;16.15;6.95;;;;;;;23.92;100.00;101435.50;5071814;28;20117;-77
2023/09/11 08:30:08;;;;;;;14.35;7.00;;;;;;;23.93;100.00;101434.47;5071303;28;20039;-76
2023/09/11 08:32:34;;;;;;;12.65;6.60;;;;;;;24.10;100.00;101437.53;5072129;28;20040;-77
2023/09/11 08:34:59;;;;;;;16.55;7.80;;;;;;;24.21;100.00;101427.03;5071153;28;20035;-75
2023/09/11 08:37:25;;;;;;;11.90;6.63;;;;;;;24.43;100.00;101422.97;5072432;28;20079;-76
2023/09/11 08:39:51;;;;;;;10.02;6.13;;;;;;;24.79;100.00;101428.84;5070775;28;20384;-75
2023/09/11 08:42:17;;;;;;;11.00;6.38;;;;;;;25.01;100.00;101426.59;5072416;28;20032;-75
2023/09/11 08:44:42;;;;;;;18.20;6.45;;;;;;;25.41;100.00;101431.75;5072052;28;20039;-76
2023/09/11 08:47:09;;;;;;;12.27;6.13;;;;;;;25.92;100.00;101426.19;5072089;28;20043;-76
2023/09/11 08:49:42;;;;;;;19.52;5.72;;;;;;;26.34;100.00;101431.78;5071624;28;20060;-78
2023/09/11 08:52:11;;;;;;;8.63;5.65;;;;;;;26.74;100.00;101428.53;5072156;28;20477;-75
2023/09/11 08:54:43;;;;;;;13.75;6.20;;;;;;;26.86;100.00;101425.84;5071924;28;20032;-77
2023/09/11 08:57:14;;;;;;;11.90;6.43;;;;;;;27.31;100.00;101419.84;5072634;28;20468;-77
2023/09/11 08:59:44;;;;;;;16.27;5.95;;;;;;;27.78;100.00;101429.91;5071900;28;20032;-75
2023/09/11 09:02:10;;;;;;;10.43;5.50;;;;;;;27.90;100.00;101428.03;5072233;28;20024;-75
2023/09/11 09:04:37;;;;;;;12.80;6.40;;;;;;;27.89;100.00;101422.78;5071891;28;20021;-79
2023/09/11 09:07:05;;;;;;;14.90;5.65;;;;;;;28.12;100.00;101427.38;5072186;28;20070;-76
2023/09/11 09:09:31;;;;;;;10.75;5.93;;;;;;;28.22;100.00;101426.78;5071660;28;20120;-76
2023/09/11 09:11:57;;;;;;;16.58;6.93;;;;;;;28.37;100.00;101429.81;5072043;28;20033;-76
2023/09/11 09:14:27;;;;;;;13.68;5.47;;;;;;;28.51;100.00;101435.81;5070526;28;20431;-75
2023/09/11 09:16:52;;;;;;;14.88;5.85;;;;;;;28.76;100.00;101442.88;5071839;28;20063;-75
2023/09/11 09:19:18;;;;;;;14.40;6.15;;;;;;;29.07;100.00;101440.66;5072542;28;20060;-76
2023/09/11 09:22:01;;;;;;;10.35;6.20;;;;;;;28.84;100.00;101448.78;5075227;28;20033;-75
2023/09/11 09:24:26;;;;;;;14.32;6.45;;;;;;;28.94;100.00;101445.34;5075865;28;20130;-76
2023/09/11 09:26:57;;;;;;;17.45;6.75;;;;;;;28.63;100.00;101442.09;5075444;28;20044;-75
2023/09/11 09:29:22;;;;;;;13.98;6.72;;;;;;;28.79;100.00;101451.41;5075821;28;20094;-75
2023/09/11 09:31:48;;;;;;;12.02;6.55;;;;;;;29.03;100.00;101445.78;5075026;28;20469;-76
2023/09/11 09:34:13;;;;;;;13.07;6.85;;;;;;;29.09;100.00;101443.97;5075361;28;20457;-74
2023/09/11 09:36:49;;;;;;;15.75;5.80;;;;;;;29.34;100.00;101443.56;5075641;28;20085;-78
2023/09/11 09:39:14;;;;;;;15.73;7.18;;;;;;;29.68;100.00;101446.28;5074304;28;20512;-78
2023/09/11 09:42:01;;;;;;;20.00;6.97;;;;;;;29.62;95.39;101445.38;5075006;28;20025;-75
2023/09/11 09:44:35;;;;;;;13.13;6.03;;;;;;;29.60;98.63;101446.69;5075491;28;20028;-77
2023/09/11 09:47:12;;;;;;;12.85;6.30;;;;;;;29.57;98.65;101441.72;5074273;28;20110;-78
2023/09/11 09:49:49;;;;;;;16.52;6.53;;;;;;;29.53;100.00;101447.69;5074812;28;20465;-75
2023/09/11 09:52:18;;;;;;;19.80;7.75;;;;;;;29.52;100.00;101440.56;5075333;28;20036;-78
2023/09/11 09:54:45;;;;;;;17.50;7.47;;;;;;;29.27;100.00;101448.41;5074880;28;20032;-78
2023/09/11 09:57:13;;;;;;;16.42;8.05;;;;;;;29.07;100.00;101444.22;5075243;28;20039;-79
2023/09/11 09:59:39;;;;;;;14.85;7.80;;;;;;;28.93;100.00;101437.41;5074959;28;20444;-78
2023/09/11 10:02:07;;;;;;;18.98;8.07;;;;;;;29.31;100.00;101444.09;5075152;28;20377;-78
2023/09/11 10:04:33;;;;;;;12.50;7.50;;;;;;;29.03;100.00;101443.88;5075117;28;20024;-78
2023/09/11 10:06:59;;;;;;;12.02;8.00;;;;;;;29.08;100.00;101442.28;5073553;28;20384;-78
2023/09/11 10:09:24;;;;;;;18.00;8.40;;;;;;;28.67;100.00;101445.97;5075059;28;20472;-78
2023/09/11 10:11:51;;;;;;;17.15;8.40;;;;;;;28.55;100.00;101447.09;5073085;28;20037;-77
2023/09/11 10:14:18;;;;;;;22.88;9.35;;;;;;;28.66;100.00;101451.69;5074761;28;20036;-77
2023/09/11 10:16:45;;;;;;;17.60;8.40;;;;;;;28.84;100.00;101442.44;5074626;28;20024;-78
2023/09/11 10:19:12;;;;;;;18.27;9.02;;;;;;;28.96;100.00;101450.59;5075028;28;20067;-78
2023/09/11 10:21:39;;;;;;;15.13;8.10;;;;;;;29.02;100.00;101446.84;5074832;28;20092;-77
2023/09/11 10:24:06;;;;;;;18.58;10.15;;;;;;;28.81;100.00;101448.41;5074464;28;20465;-77
2023/09/11 10:26:49;;;;;;;19.27;9.52;;;;;;;28.39;100.00;101446.78;5074821;28;20059;-78
2023/09/11 10:29:29;;;;;;;24.23;10.13;;;;;;;27.90;100.00;101446.31;5074828;28;20492;-77
2023/09/11 10:32:33;;;;;;;17.05;11.10;;;;;;;27.33;100.00;101453.22;5073519;28;20056;-78
2023/09/11 10:35:01;;;;;;;20.55;10.38;;;;;;;27.10;100.00;101443.91;5074265;28;20063;-78
2023/09/11 10:37:29;;;;;;;20.73;10.27;;;;;;;27.27;100.00;101443.22;5074489;28;20111;-78
2023/09/11 10:39:57;;;;;;;22.05;10.60;;;;;;;27.60;100.00;101450.03;5074061;28;20028;-78
2023/09/11 10:42:22;;;;;;;17.08;10.93;;;;;;;27.64;100.00;101461.31;5073178;28;20135;-77
2023/09/11 10:44:47;;;;;;;20.63;11.88;;;;;;;27.24;100.00;101451.88;5074000;28;20417;-78
2023/09/11 10:47:14;;;;;;;26.85;12.52;;;;;;;27.38;100.00;101458.81;5074294;28;20493;-78
2023/09/11 10:49:41;;;;;;;21.30;12.38;;;;;;;27.41;100.00;101461.09;5073980;28;20036;-78
2023/09/11 10:52:08;;;;;;;20.73;12.85;;;;;;;27.40;100.00;101470.34;5073932;28;20123;-78
2023/09/11 10:54:35;;;;;;;27.40;14.45;;;;;;;27.24;100.00;101465.53;5073073;28;20032;-78
2023/09/11 10:57:00;;;;;;;21.67;13.68;;;;;;;26.87;100.00;101466.56;5073758;28;20029;-78
2023/09/11 10:59:28;;;;;;;31.35;16.23;;;;;;;26.39;100.00;101456.47;5074079;28;20058;-78
2023/09/11 11:01:53;;;;;;;23.00;14.50;;;;;;;26.20;100.00;101461.97;5073554;28;20024;-78
2023/09/11 11:04:22;;;;;;;29.70;16.25;;;;;;;25.82;100.00;101464.88;5074010;28;20469;-78